createdAt,value
2023-03-13T00:03:52.554Z,6.84
2023-03-13T00:08:49.497Z,6.77
2023-03-13T00:14:07.484Z,6.80
2023-03-13T00:19:06.986Z,6.89
2023-03-13T00:24:06.380Z,6.88
2023-03-13T00:29:10.049Z,6.87
2023-03-13T00:34:12.102Z,6.72
2023-03-13T00:39:09.663Z,6.78
2023-03-13T00:44:07.664Z,6.66
2023-03-13T00:49:05.281Z,6.44
2023-03-13T00:54:04.567Z,6.27
2023-03-13T00:59:03.068Z,6.40
2023-03-13T01:04:08.253Z,6.42
2023-03-13T01:09:08.674Z,6.42
2023-03-13T01:14:08.790Z,6.41
2023-03-13T01:19:06.896Z,6.36
2023-03-13T01:24:11.475Z,6.35
2023-03-13T01:29:11.349Z,6.27
2023-03-13T01:34:10.916Z,6.26
2023-03-13T01:39:13.076Z,6.19
2023-03-13T01:44:20.591Z,6.19
2023-03-13T01:49:23.486Z,6.32
2023-03-13T01:54:32.228Z,6.18
2023-03-13T01:59:45.782Z,6.24
2023-03-13T02:04:48.292Z,5.89
2023-03-13T02:09:50.553Z,6.05
2023-03-13T02:14:55.012Z,6.03
2023-03-13T02:19:52.467Z,5.85
2023-03-13T02:24:53.956Z,5.96
2023-03-13T02:29:54.696Z,5.92
2023-03-13T02:34:53.373Z,6.01
2023-03-13T02:39:53.594Z,5.76
2023-03-13T02:44:57.735Z,5.69
2023-03-13T02:49:59.324Z,5.58
2023-03-13T02:54:58.751Z,5.30
2023-03-13T02:59:57.458Z,5.49
2023-03-13T03:04:55.755Z,5.51
2023-03-13T03:10:00.599Z,5.38
2023-03-13T03:15:01.341Z,5.10
2023-03-13T03:19:58.481Z,4.98
2023-03-13T03:25:00.816Z,5.14
2023-03-13T03:29:57.909Z,4.51
2023-03-13T03:34:58.904Z,4.51
2023-03-13T03:39:58.209Z,4.80
2023-03-13T03:44:55.175Z,4.88
2023-03-13T03:49:53.070Z,4.72
2023-03-13T03:54:50.678Z,4.51
2023-03-13T03:59:48.696Z,4.70
2023-03-13T04:04:50.783Z,4.51
2023-03-13T04:09:51.977Z,4.47
2023-03-13T04:15:00.964Z,4.31
2023-03-13T04:20:00.188Z,4.36
2023-03-13T04:25:07.359Z,4.50
2023-03-13T04:30:05.428Z,3.90
2023-03-13T04:35:13.607Z,3.73
2023-03-13T04:40:25.689Z,3.43
2023-03-13T04:45:27.575Z,3.71
2023-03-13T04:50:54.754Z,4.09
2023-03-13T04:56:16.998Z,4.11
2023-03-13T05:01:24.942Z,3.89
2023-03-13T05:06:50.982Z,3.96
2023-03-13T05:12:28.069Z,4.15
2023-03-13T05:17:36.580Z,3.77
2023-03-13T05:22:49.629Z,3.83
2023-03-13T05:28:06.516Z,4.11
2023-03-13T05:33:31.709Z,4.38
2023-03-13T05:38:53.685Z,4.57
2023-03-13T05:43:59.752Z,4.41
2023-03-13T05:49:10.675Z,4.54
2023-03-13T05:54:28.729Z,4.96
2023-03-13T05:59:37.672Z,4.96
2023-03-13T06:05:03.885Z,5.09
2023-03-13T06:10:08.913Z,5.06
2023-03-13T06:15:13.274Z,5.46
2023-03-13T06:20:29.646Z,5.87
2023-03-13T06:25:28.349Z,5.74
2023-03-13T06:30:32.681Z,5.79
2023-03-13T06:35:29.772Z,5.50
2023-03-13T06:41:07.362Z,5.85
2023-03-13T06:46:10.235Z,5.76
2023-03-13T06:51:33.118Z,5.92
2023-03-13T06:56:43.500Z,6.20
2023-03-13T07:01:49.385Z,6.03
2023-03-13T07:12:04.204Z,6.18
2023-03-13T07:17:03.108Z,6.14
2023-03-13T07:22:03.296Z,6.33
2023-03-13T07:27:07.476Z,6.64
2023-03-13T07:32:08.050Z,6.70
2023-03-13T07:37:19.246Z,6.86
2023-03-13T07:42:17.866Z,7.42
2023-03-13T07:47:19.026Z,7.43
2023-03-13T07:52:23.976Z,7.57
2023-03-13T07:57:44.801Z,7.62
2023-03-13T08:08:18.565Z,7.65
2023-03-13T08:13:26.113Z,7.69
2023-03-13T08:18:36.239Z,7.87
2023-03-13T08:23:53.473Z,8.28
2023-03-13T08:28:58.827Z,8.31
2023-03-13T08:34:11.534Z,8.35
2023-03-13T08:39:11.368Z,8.57
2023-03-13T08:44:13.616Z,8.77
2023-03-13T08:49:54.102Z,8.94
2023-03-13T08:54:56.000Z,9.38
2023-03-13T09:00:10.983Z,9.42
2023-03-13T09:05:28.944Z,9.34
2023-03-13T09:10:48.954Z,9.63
2023-03-13T09:16:00.595Z,9.69
2023-03-13T09:21:03.626Z,9.58
2023-03-13T09:26:02.448Z,9.87
2023-03-13T09:31:13.437Z,10.32
2023-03-13T09:36:17.188Z,10.25
2023-03-13T09:41:26.592Z,10.27
2023-03-13T09:46:44.052Z,10.25
2023-03-13T09:51:58.227Z,10.44
2023-03-13T09:57:28.623Z,10.67
2023-03-13T10:02:32.804Z,10.89
2023-03-13T10:07:41.436Z,10.79
2023-03-13T10:12:45.663Z,10.81
2023-03-13T10:17:45.998Z,10.97
2023-03-13T10:22:47.890Z,11.43
2023-03-13T10:27:52.331Z,11.19
2023-03-13T10:33:04.716Z,11.36
2023-03-13T10:38:07.440Z,11.76
2023-03-13T10:48:43.453Z,11.62
2023-03-13T10:53:50.472Z,11.93
2023-03-13T10:59:04.413Z,12.05
2023-03-13T11:04:18.751Z,12.18
2023-03-13T11:09:19.395Z,12.29
2023-03-13T11:14:24.216Z,12.65
2023-03-13T11:19:42.041Z,12.67
2023-03-13T11:24:54.160Z,12.32
2023-03-13T11:30:03.960Z,12.34
2023-03-13T11:35:22.128Z,12.51
2023-03-13T11:40:28.518Z,12.52
2023-03-13T11:45:41.102Z,12.69
2023-03-13T11:50:47.884Z,12.91
2023-03-13T11:56:13.488Z,12.78
2023-03-13T12:01:16.506Z,12.79
2023-03-13T12:06:27.994Z,12.68
2023-03-13T12:11:28.046Z,12.73
2023-03-13T12:16:35.462Z,12.77
2023-03-13T12:21:38.641Z,12.83
2023-03-13T12:26:51.703Z,12.70
2023-03-13T12:31:57.376Z,12.95
2023-03-13T12:37:07.669Z,13.00
2023-03-13T12:42:29.968Z,13.21
2023-03-13T12:47:38.843Z,12.98
2023-03-13T12:53:20.443Z,13.15
2023-03-13T12:58:35.633Z,13.13
2023-03-13T13:04:14.841Z,13.22
2023-03-13T13:09:27.928Z,13.00
2023-03-13T13:14:59.982Z,13.26
2023-03-13T13:19:59.476Z,13.53
2023-03-13T13:25:04.431Z,13.33
2023-03-13T13:30:03.770Z,13.32
2023-03-13T13:35:22.110Z,13.15
2023-03-13T13:40:28.572Z,13.30
2023-03-13T13:45:36.930Z,13.45
2023-03-13T13:51:39.834Z,13.48
2023-03-13T13:56:59.658Z,13.51
2023-03-13T14:02:25.669Z,13.38
2023-03-13T14:07:48.305Z,13.45
2023-03-13T14:12:55.815Z,13.40
2023-03-13T14:18:00.565Z,13.42
2023-03-13T14:23:03.401Z,13.63
2023-03-13T14:28:08.681Z,13.82
2023-03-13T14:33:17.375Z,13.42
2023-03-13T14:38:17.937Z,13.39
2023-03-13T14:43:21.729Z,13.51
2023-03-13T14:48:25.313Z,13.58
2023-03-13T14:53:35.263Z,13.51
2023-03-13T14:58:34.274Z,13.56
2023-03-13T15:03:32.169Z,13.64
2023-03-13T15:08:35.272Z,13.69
2023-03-13T15:13:40.258Z,13.74
2023-03-13T15:18:43.563Z,13.75
2023-03-13T15:24:04.403Z,13.76
2023-03-13T15:29:58.851Z,13.72
2023-03-13T15:35:02.842Z,13.70
2023-03-13T15:40:07.411Z,13.70
2023-03-13T15:45:07.478Z,13.68
2023-03-13T15:50:11.763Z,13.65
2023-03-13T15:55:13.581Z,13.61
2023-03-13T16:00:23.909Z,13.59
2023-03-13T16:05:41.660Z,13.57
2023-03-13T16:10:49.482Z,13.54
2023-03-13T16:16:19.437Z,13.46
2023-03-13T16:21:50.087Z,13.40
2023-03-13T16:27:25.425Z,13.35
2023-03-13T16:32:37.942Z,13.38
2023-03-13T16:37:38.989Z,13.38
2023-03-13T16:42:36.204Z,13.38
2023-03-13T16:47:35.236Z,13.36
2023-03-13T16:52:32.249Z,13.38
2023-03-13T16:57:29.952Z,13.44
2023-03-13T17:02:32.259Z,13.41
2023-03-13T17:07:41.154Z,13.27
2023-03-13T17:12:38.829Z,13.30
2023-03-13T17:17:36.716Z,13.30
2023-03-13T17:22:34.391Z,13.34
2023-03-13T17:27:41.696Z,13.36
2023-03-13T17:33:15.050Z,13.39
2023-03-13T17:38:15.030Z,13.37
2023-03-13T17:43:14.457Z,13.32
2023-03-13T17:48:16.540Z,13.34
2023-03-13T17:53:13.638Z,13.33
2023-03-13T17:58:25.726Z,13.21
2023-03-13T18:03:23.844Z,13.25
2023-03-13T18:08:23.742Z,13.10
2023-03-13T18:13:22.663Z,13.13
2023-03-13T18:18:22.533Z,13.18
2023-03-13T18:23:24.364Z,13.21
2023-03-13T18:28:23.481Z,13.24
2023-03-13T18:33:20.405Z,13.23
2023-03-13T18:38:18.657Z,13.17
2023-03-13T18:43:15.518Z,13.04
2023-03-13T18:48:23.303Z,13.06
2023-03-13T18:53:27.077Z,12.89
2023-03-13T18:58:24.317Z,12.79
2023-03-13T19:03:30.183Z,12.77
2023-03-13T19:08:45.460Z,12.65
2023-03-13T19:13:44.260Z,12.51
2023-03-13T19:18:45.216Z,12.41
2023-03-13T19:23:43.221Z,12.33
2023-03-13T19:28:40.065Z,12.23
2023-03-13T19:33:50.252Z,12.12
2023-03-13T19:38:51.202Z,12.10
2023-03-13T19:43:49.303Z,11.41
2023-03-13T19:48:48.116Z,10.89
2023-03-13T19:53:45.046Z,10.79
2023-03-13T19:58:43.729Z,11.26
2023-03-13T20:03:42.474Z,10.90
2023-03-13T20:08:39.347Z,10.56
2023-03-13T20:13:36.289Z,10.34
2023-03-13T20:18:38.024Z,10.30
2023-03-13T20:23:35.051Z,10.26
2023-03-13T20:28:36.327Z,9.93
2023-03-13T20:33:37.128Z,9.88
2023-03-13T20:38:37.769Z,9.87
2023-03-13T20:43:37.821Z,9.72
2023-03-13T20:48:38.459Z,9.58
2023-03-13T20:53:36.083Z,9.57
2023-03-13T20:58:35.266Z,9.68
2023-03-13T21:03:38.977Z,9.68
2023-03-13T21:08:38.562Z,9.39
2023-03-13T21:13:35.606Z,9.25
2023-03-13T21:18:36.621Z,9.23
2023-03-13T21:23:39.340Z,8.94
2023-03-13T21:28:37.397Z,9.07
2023-03-13T21:33:34.075Z,8.97
2023-03-13T21:38:41.257Z,9.02
2023-03-13T21:43:40.906Z,9.22
2023-03-13T21:48:41.979Z,9.07
2023-03-13T21:53:45.136Z,8.69
2023-03-13T21:58:42.209Z,8.81
2023-03-13T22:03:39.365Z,8.37
2023-03-13T22:08:40.743Z,8.35
2023-03-13T22:13:40.221Z,8.33
2023-03-13T22:18:37.254Z,8.16
2023-03-13T22:23:34.316Z,7.94
2023-03-13T22:28:33.108Z,8.05
2023-03-13T22:33:31.216Z,7.93
2023-03-13T22:38:38.281Z,7.97
2023-03-13T22:43:37.936Z,7.77
2023-03-13T22:48:35.763Z,7.78
2023-03-13T22:53:35.461Z,7.86
2023-03-13T22:58:33.199Z,7.75
2023-03-13T23:03:30.060Z,7.72
2023-03-13T23:08:27.538Z,7.93
2023-03-13T23:13:24.450Z,7.89
2023-03-13T23:18:23.740Z,8.26
2023-03-13T23:23:20.700Z,8.77
2023-03-13T23:28:20.663Z,9.11
2023-03-13T23:33:17.488Z,9.37
2023-03-13T23:38:17.860Z,9.61
2023-03-13T23:43:17.356Z,9.31
2023-03-13T23:48:15.218Z,9.14
2023-03-13T23:53:13.279Z,8.99
2023-03-13T23:58:12.776Z,9.12
